Time;durP1;ratioP1;P1;durP2;ratioP2;P2;SDS_P1;SDS_P2;PMS_P1;PMS_P2;Temp;Humidity;BMP_temperature;BMP_pressure;BME280_temperature;BME280_humidity;BME280_pressure;Samples;Min_cycle;Max_cycle;Signal;HPM_P1;HPM_P2
2023/04/24 00:01:14;;;;;;;8.95;5.15;;;;;;;9.47;100.00;97962.34;5138889;28;20078;-64
2023/04/24 00:03:41;;;;;;;8.70;4.53;;;;;;;9.47;100.00;97949.47;5138051;28;20047;-60
2023/04/24 00:06:07;;;;;;;7.68;4.68;;;;;;;9.43;100.00;97935.78;5138382;27;20080;-59
2023/04/24 00:08:33;;;;;;;9.20;5.10;;;;;;;9.36;100.00;97910.34;5138014;28;20305;-60
2023/04/24 00:10:59;;;;;;;16.58;4.82;;;;;;;9.31;100.00;97903.31;5138451;28;20058;-60
2023/04/24 00:13:25;;;;;;;12.02;4.75;;;;;;;9.24;100.00;97884.16;5137809;27;20378;-60
2023/04/24 00:15:51;;;;;;;9.88;4.55;;;;;;;9.17;100.00;97879.44;5138177;28;20301;-61
2023/04/24 00:18:17;;;;;;;7.85;4.63;;;;;;;9.13;100.00;97877.84;5138186;27;20050;-63
2023/04/24 00:20:44;;;;;;;10.73;5.30;;;;;;;9.07;100.00;97874.72;5137950;28;20107;-63
2023/04/24 00:23:10;;;;;;;13.57;4.35;;;;;;;9.05;100.00;97876.28;5138042;28;20054;-59
2023/04/24 00:25:36;;;;;;;9.23;4.68;;;;;;;9.01;100.00;97873.53;5137888;28;20085;-58
2023/04/24 00:28:02;;;;;;;8.65;4.20;;;;;;;8.98;100.00;97868.84;5138073;27;20397;-59
2023/04/24 00:30:28;;;;;;;11.60;4.97;;;;;;;8.94;100.00;97868.03;5137792;27;20370;-61
2023/04/24 00:32:54;;;;;;;13.43;4.90;;;;;;;8.90;100.00;97850.84;5138045;28;20061;-60
2023/04/24 00:35:20;;;;;;;7.85;4.15;;;;;;;8.87;100.00;97846.16;5137584;27;20043;-61
2023/04/24 00:37:47;;;;;;;7.68;4.32;;;;;;;8.85;100.00;97851.22;5137556;27;20416;-61
2023/04/24 00:40:13;;;;;;;11.95;3.88;;;;;;;8.91;100.00;97866.84;5137557;28;20522;-61
2023/04/24 00:42:39;;;;;;;10.82;4.53;;;;;;;8.91;100.00;97857.88;5137814;28;20062;-63
2023/04/24 00:45:07;;;;;;;4.97;3.22;;;;;;;8.84;100.00;97844.97;5137698;28;20058;-63
2023/04/24 00:47:33;;;;;;;8.50;4.07;;;;;;;8.83;100.00;97837.16;5137397;28;20151;-60
2023/04/24 00:50:01;;;;;;;11.85;4.68;;;;;;;8.79;100.00;97839.09;5137435;28;20047;-57
2023/04/24 00:52:28;;;;;;;7.30;3.90;;;;;;;8.74;100.00;97826.59;5137501;28;20057;-60
2023/04/24 00:54:54;;;;;;;7.18;4.85;;;;;;;8.72;100.00;97823.44;5137501;28;20085;-62
2023/04/24 00:57:21;;;;;;;7.50;4.30;;;;;;;8.69;100.00;97818.75;5137245;28;20481;-59
2023/04/24 00:59:47;;;;;;;6.28;3.97;;;;;;;8.62;100.00;97811.31;5137526;27;20051;-59
2023/04/24 01:02:14;;;;;;;10.27;4.38;;;;;;;8.66;100.00;97812.13;5137296;28;20054;-59
2023/04/24 01:04:40;;;;;;;13.95;5.20;;;;;;;8.64;100.00;97819.13;5137563;28;20354;-63
2023/04/24 01:07:10;;;;;;;10.68;4.00;;;;;;;8.59;100.00;97817.53;5137148;27;20313;-60
2023/04/24 01:09:37;;;;;;;9.73;4.13;;;;;;;8.56;100.00;97807.38;5139700;27;20051;-63
2023/04/24 01:12:03;;;;;;;6.57;3.67;;;;;;;8.49;100.00;97804.63;5141094;27;20043;-62
2023/04/24 01:14:30;;;;;;;6.72;4.40;;;;;;;8.47;100.00;97801.50;5140851;28;20051;-59
2023/04/24 01:16:57;;;;;;;6.72;3.63;;;;;;;8.48;100.00;97803.06;5141027;27;20047;-60
2023/04/24 01:19:23;;;;;;;8.25;3.80;;;;;;;8.49;100.00;97799.94;5140834;28;20055;-63
2023/04/24 01:21:53;;;;;;;9.75;4.78;;;;;;;8.47;100.00;97799.56;5141017;27;20146;-61
2023/04/24 01:24:20;;;;;;;5.57;3.75;;;;;;;8.40;100.00;97796.81;5140682;27;20336;-61
2023/04/24 01:26:46;;;;;;;10.18;4.47;;;;;;;8.39;100.00;97797.94;5140885;28;20537;-60
2023/04/24 01:29:12;;;;;;;7.38;3.90;;;;;;;8.36;100.00;97795.16;5140591;28;20053;-63
2023/04/24 01:31:39;;;;;;;6.22;3.58;;;;;;;8.44;100.00;97792.13;5140982;28;20142;-63
2023/04/24 01:34:05;;;;;;;7.18;3.80;;;;;;;8.41;100.00;97792.91;5140514;28;20050;-61
2023/04/24 01:36:33;;;;;;;8.73;3.83;;;;;;;8.29;100.00;97785.00;5140820;27;20051;-60
2023/04/24 01:39:00;;;;;;;7.28;4.25;;;;;;;8.38;100.00;97787.41;5140638;28;20211;-62
2023/04/24 01:41:27;;;;;;;10.80;4.03;;;;;;;8.33;100.00;97785.00;5140619;28;20487;-60
2023/04/24 01:43:54;;;;;;;11.05;4.47;;;;;;;8.27;100.00;97790.09;5140547;27;20146;-60
2023/04/24 01:46:20;;;;;;;5.85;3.90;;;;;;;8.18;100.00;97776.00;5140507;28;20051;-56
2023/04/24 01:48:46;;;;;;;6.40;3.85;;;;;;;8.14;100.00;97780.66;5140600;27;20137;-62
2023/04/24 01:51:12;;;;;;;11.40;4.25;;;;;;;8.10;100.00;97779.84;5140331;28;20111;-62
2023/04/24 01:53:38;;;;;;;7.07;4.03;;;;;;;8.12;100.00;97778.28;5140561;27;20055;-61
2023/04/24 01:56:05;;;;;;;6.45;3.55;;;;;;;8.13;100.00;97773.59;5140197;28;20134;-60
2023/04/24 01:58:32;;;;;;;10.65;4.07;;;;;;;8.16;100.00;97776.38;5140518;27;20051;-60
2023/04/24 02:00:58;;;;;;;9.98;3.70;;;;;;;8.18;100.00;97781.44;5140096;28;20047;-63
2023/04/24 02:03:25;;;;;;;10.02;4.25;;;;;;;8.14;100.00;97775.97;5140438;27;20191;-62
2023/04/24 02:05:51;;;;;;;7.07;3.70;;;;;;;8.14;100.00;97767.78;5139876;27;20186;-64
2023/04/24 02:08:17;;;;;;;14.57;3.90;;;;;;;8.13;100.00;97768.16;5139879;28;20405;-64
2023/04/24 02:10:43;;;;;;;4.88;3.20;;;;;;;8.16;100.00;97761.94;5139853;27;20142;-64
2023/04/24 02:13:09;;;;;;;6.55;3.63;;;;;;;8.13;100.00;97768.97;5140039;28;20344;-59
2023/04/24 02:15:35;;;;;;;8.43;4.32;;;;;;;8.12;100.00;97764.63;5140213;27;20112;-61
2023/04/24 02:18:01;;;;;;;12.50;4.65;;;;;;;8.12;100.00;97759.19;5139940;28;20054;-61
2023/04/24 02:20:27;;;;;;;5.90;3.70;;;;;;;8.05;100.00;97756.41;5139783;27;20051;-63
2023/04/24 02:22:53;;;;;;;6.38;3.60;;;;;;;8.09;100.00;97759.94;5139764;28;20057;-64
2023/04/24 02:25:20;;;;;;;8.05;3.88;;;;;;;7.97;100.00;97766.53;5140078;28;20043;-61
2023/04/24 02:27:45;;;;;;;7.18;3.67;;;;;;;8.15;100.00;97760.38;5139599;27;20448;-61
2023/04/24 02:30:12;;;;;;;17.33;5.22;;;;;;;8.17;100.00;97758.06;5140026;28;20078;-62
2023/04/24 02:32:39;;;;;;;8.00;3.90;;;;;;;8.08;100.00;97763.06;5139567;28;20051;-59
2023/04/24 02:35:06;;;;;;;10.07;4.05;;;;;;;8.05;100.00;97766.56;5139894;27;20417;-63
2023/04/24 02:37:32;;;;;;;9.40;4.20;;;;;;;7.90;100.00;97766.50;5140588;28;20047;-61
2023/04/24 02:39:57;;;;;;;7.05;3.70;;;;;;;7.91;100.00;97765.31;5140526;28;20108;-61
2023/04/24 02:42:23;;;;;;;5.63;4.07;;;;;;;7.82;100.00;97764.88;5139697;28;20079;-61
2023/04/24 02:44:51;;;;;;;7.85;3.85;;;;;;;7.86;100.00;97778.53;5139450;27;20153;-59
2023/04/24 02:47:17;;;;;;;9.23;4.25;;;;;;;7.93;100.00;97775.84;5139466;27;20047;-62
2023/04/24 02:49:43;;;;;;;6.85;3.85;;;;;;;7.82;100.00;97769.53;5139440;28;20053;-61
2023/04/24 02:52:10;;;;;;;9.70;4.22;;;;;;;7.88;100.00;97773.47;5139589;28;20051;-61
2023/04/24 02:54:36;;;;;;;6.93;4.25;;;;;;;7.90;100.00;97782.09;5139199;28;20435;-61
2023/04/24 02:57:02;;;;;;;6.75;4.13;;;;;;;7.95;100.00;97776.25;5139572;28;20043;-60
2023/04/24 02:59:28;;;;;;;13.07;3.90;;;;;;;7.92;100.00;97774.28;5139271;27;20047;-65
2023/04/24 03:01:54;;;;;;;7.32;3.88;;;;;;;7.98;100.00;97768.09;5139523;28;20047;-60
2023/04/24 03:04:20;;;;;;;9.18;3.40;;;;;;;8.00;100.00;97759.53;5138924;28;20069;-63
2023/04/24 03:06:47;;;;;;;8.90;3.80;;;;;;;7.99;100.00;97768.84;5139201;27;20401;-64
2023/04/24 03:09:13;;;;;;;7.03;4.05;;;;;;;8.00;100.00;97773.19;5138891;27;20138;-63
2023/04/24 03:11:39;;;;;;;6.97;3.88;;;;;;;7.78;100.00;97780.44;5139135;28;20069;-64
2023/04/24 03:14:05;;;;;;;7.13;4.38;;;;;;;8.00;100.00;97784.88;5139106;28;20055;-60
2023/04/24 03:16:31;;;;;;;7.22;3.47;;;;;;;8.06;100.00;97770.84;5139006;28;20150;-60
2023/04/24 03:18:57;;;;;;;7.95;3.83;;;;;;;8.20;100.00;97769.00;5139154;27;20055;-62
2023/04/24 03:21:23;;;;;;;4.40;3.50;;;;;;;8.25;100.00;97763.16;5138880;28;20431;-63
2023/04/24 03:23:49;;;;;;;6.07;4.03;;;;;;;8.31;100.00;97765.53;5138926;28;20431;-63
2023/04/24 03:26:15;;;;;;;16.55;4.00;;;;;;;8.40;100.00;97758.56;5138688;28;20446;-65
2023/04/24 03:28:41;;;;;;;8.60;3.53;;;;;;;9.06;100.00;97772.00;5139079;28;20043;-64
2023/04/24 03:31:07;;;;;;;7.47;3.38;;;;;;;9.73;100.00;97786.06;5137878;27;20142;-65
2023/04/24 03:33:33;;;;;;;5.00;3.47;;;;;;;10.16;100.00;97846.25;5138961;28;20419;-63
2023/04/24 03:35:59;;;;;;;7.68;3.70;;;;;;;10.70;100.00;97938.16;5138365;27;20057;-62
2023/04/24 03:38:25;;;;;;;7.70;3.28;;;;;;;11.23;100.00;98005.78;5138749;28;20059;-60
2023/04/24 03:40:51;;;;;;;5.75;3.10;;;;;;;11.67;100.00;98078.53;5138767;28;20047;-61
2023/04/24 03:43:17;;;;;;;11.23;3.35;;;;;;;12.10;100.00;98118.78;5138563;28;20142;-61
2023/04/24 03:45:43;;;;;;;8.48;3.85;;;;;;;12.18;100.00;98195.28;5138490;27;20496;-61
2023/04/24 03:48:09;;;;;;;6.20;3.30;;;;;;;12.77;100.00;98215.81;5138516;28;20051;-62
2023/04/24 03:50:35;;;;;;;5.97;2.88;;;;;;;12.84;100.00;98257.00;5138653;27;20058;-63
2023/04/24 03:53:01;;;;;;;10.23;3.20;;;;;;;13.14;100.00;98289.44;5138364;28;20055;-64
2023/04/24 03:55:27;;;;;;;5.38;3.00;;;;;;;13.52;100.00;98306.88;5138644;27;20085;-64
2023/04/24 03:57:53;;;;;;;6.75;3.42;;;;;;;13.72;100.00;98342.91;5138256;28;20440;-63
2023/04/24 04:00:20;;;;;;;9.13;3.72;;;;;;;13.49;100.00;98346.25;5138645;28;20475;-63
2023/04/24 04:02:46;;;;;;;5.40;3.20;;;;;;;12.89;100.00;98325.34;5137999;28;20058;-62
2023/04/24 04:05:12;;;;;;;8.52;3.58;;;;;;;11.90;100.00;98280.53;5138451;27;20316;-64
2023/04/24 04:07:38;;;;;;;5.47;3.40;;;;;;;11.97;100.00;98244.81;5137991;27;20106;-64
2023/04/24 04:10:06;;;;;;;6.93;3.17;;;;;;;10.99;100.00;98169.19;5137974;28;20082;-64
2023/04/24 04:12:32;;;;;;;5.30;3.28;;;;;;;11.27;100.00;98167.63;5138245;27;20059;-64
2023/04/24 04:14:59;;;;;;;7.20;3.13;;;;;;;10.88;100.00;98127.28;5138047;27;20111;-62
2023/04/24 04:17:25;;;;;;;7.60;3.40;;;;;;;10.74;100.00;98099.88;5138227;28;20055;-64
2023/04/24 04:19:51;;;;;;;7.47;3.33;;;;;;;10.66;100.00;98068.94;5137969;28;20057;-61
2023/04/24 04:22:17;;;;;;;5.28;3.40;;;;;;;10.01;100.00;98010.56;5138220;28;20378;-61
2023/04/24 04:24:42;;;;;;;6.63;3.17;;;;;;;9.98;100.00;97986.69;5137660;28;20086;-62
2023/04/24 04:27:09;;;;;;;4.68;3.42;;;;;;;9.59;100.00;97965.50;5138135;28;20055;-60
2023/04/24 04:29:35;;;;;;;9.63;3.55;;;;;;;9.99;100.00;97936.22;5137704;28;20051;-61
2023/04/24 04:32:02;;;;;;;8.48;3.17;;;;;;;10.06;100.00;97943.66;5138110;28;20100;-62
2023/04/24 04:34:28;;;;;;;7.00;3.53;;;;;;;9.93;100.00;97928.78;5137559;27;20067;-63
2023/04/24 04:36:54;;;;;;;6.53;3.53;;;;;;;9.65;100.00;97935.81;5137771;27;20142;-61
2023/04/24 04:39:21;;;;;;;7.90;3.60;;;;;;;9.90;100.00;97900.25;5137814;28;20047;-62
2023/04/24 04:41:48;;;;;;;5.25;3.42;;;;;;;10.17;100.00;97908.09;5137724;28;20051;-61
2023/04/24 04:44:14;;;;;;;8.95;3.45;;;;;;;10.58;100.00;97947.56;5137686;27;20059;-61
2023/04/24 04:46:41;;;;;;;11.65;4.07;;;;;;;10.09;100.00;97957.34;5137572;28;20054;-63
2023/04/24 04:49:08;;;;;;;11.90;4.15;;;;;;;10.57;100.00;97965.19;5137871;28;20051;-64
2023/04/24 04:51:34;;;;;;;9.02;3.63;;;;;;;11.07;100.00;97986.25;5137377;27;20047;-61
2023/04/24 04:54:00;;;;;;;5.10;3.40;;;;;;;10.97;100.00;98047.38;5137670;27;20397;-63
2023/04/24 04:56:26;;;;;;;7.32;3.50;;;;;;;11.04;100.00;98039.91;5137315;28;20043;-65
2023/04/24 04:58:52;;;;;;;5.28;3.30;;;;;;;11.05;100.00;98059.88;5137754;28;20119;-64
2023/04/24 05:01:18;;;;;;;4.82;3.33;;;;;;;10.82;100.00;98044.63;5137246;28;20105;-62
2023/04/24 05:03:44;;;;;;;7.55;3.65;;;;;;;10.80;100.00;98007.84;5137591;28;20051;-62
2023/04/24 05:06:10;;;;;;;9.07;3.58;;;;;;;10.80;100.00;98007.84;5137401;27;20138;-60
2023/04/24 05:08:36;;;;;;;5.97;3.30;;;;;;;10.76;100.00;98015.28;5137373;28;20051;-62
2023/04/24 05:11:02;;;;;;;10.20;3.90;;;;;;;10.75;100.00;98000.00;5137442;28;20089;-61
2023/04/24 05:13:28;;;;;;;14.15;4.18;;;;;;;10.74;100.00;98025.88;5137226;28;20332;-60
2023/04/24 05:15:54;;;;;;;9.63;3.63;;;;;;;10.49;100.00;98017.66;5137490;28;20078;-61
2023/04/24 05:18:20;;;;;;;7.57;3.63;;;;;;;10.32;100.00;97998.06;5137933;28;20051;-61
2023/04/24 05:20:46;;;;;;;11.07;3.83;;;;;;;10.43;100.00;97976.19;5137980;28;20401;-64
2023/04/24 05:23:12;;;;;;;8.88;3.70;;;;;;;10.44;100.00;97980.47;5136925;28;20192;-64
2023/04/24 05:25:39;;;;;;;4.97;3.80;;;;;;;10.71;100.00;97971.84;5137298;28;20043;-65
2023/04/24 05:28:05;;;;;;;7.28;3.88;;;;;;;11.14;100.00;98021.09;5136905;28;20047;-61
2023/04/24 05:30:31;;;;;;;4.57;3.50;;;;;;;11.51;100.00;98078.19;5137376;28;20422;-63
2023/04/24 05:32:57;;;;;;;7.43;3.60;;;;;;;12.21;100.00;98119.50;5136781;27;20138;-62
2023/04/24 05:35:23;;;;;;;7.85;3.75;;;;;;;14.00;100.00;98220.66;5136735;27;20139;-64
2023/04/24 05:37:49;;;;;;;7.53;3.20;;;;;;;14.74;100.00;98349.84;5137075;28;20055;-65
2023/04/24 05:40:16;;;;;;;6.90;3.17;;;;;;;14.89;100.00;98369.75;5136674;28;20431;-61
2023/04/24 05:42:42;;;;;;;7.25;3.42;;;;;;;16.32;100.00;98406.34;5137091;28;20062;-62
2023/04/24 05:45:11;;;;;;;8.30;3.28;;;;;;;16.94;100.00;98441.59;5136614;28;20096;-63
2023/04/24 05:47:37;;;;;;;7.65;3.42;;;;;;;16.17;100.00;98436.25;5136964;28;20331;-62
2023/04/24 05:50:04;;;;;;;7.70;3.47;;;;;;;15.90;100.00;98414.94;5136597;28;20058;-61
2023/04/24 05:52:30;;;;;;;5.88;3.45;;;;;;;15.19;100.00;98388.28;5136908;28;20412;-63
2023/04/24 05:54:56;;;;;;;8.63;3.72;;;;;;;15.15;100.00;98421.47;5137716;27;20093;-64
2023/04/24 05:57:23;;;;;;;9.60;3.78;;;;;;;15.19;100.00;98402.09;5140635;28;20047;-65
2023/04/24 05:59:49;;;;;;;11.18;3.70;;;;;;;16.21;100.00;98440.50;5140166;28;20047;-63
2023/04/24 06:02:14;;;;;;;8.63;3.85;;;;;;;17.32;96.86;98462.59;5140481;28;20133;-65
2023/04/24 06:04:41;;;;;;;11.68;4.00;;;;;;;17.01;97.83;98462.06;5140182;28;20315;-65
2023/04/24 06:07:07;;;;;;;7.65;3.88;;;;;;;17.82;87.77;98489.28;5140078;27;20051;-64
2023/04/24 06:09:33;;;;;;;11.65;6.45;;;;;;;18.49;88.09;98475.03;5140246;28;20054;-64
2023/04/24 06:11:59;;;;;;;15.63;4.57;;;;;;;17.91;88.77;98478.41;5140062;28;20056;-65
2023/04/24 06:14:26;;;;;;;11.73;4.60;;;;;;;16.32;97.16;98470.75;5140216;27;20055;-65
2023/04/24 06:16:52;;;;;;;10.50;3.55;;;;;;;17.12;97.48;98459.84;5139817;28;20408;-65
2023/04/24 06:19:18;;;;;;;7.18;4.20;;;;;;;17.49;91.52;98471.75;5140151;28;20131;-66
2023/04/24 06:21:44;;;;;;;7.07;4.28;;;;;;;18.72;88.79;98477.63;5139781;28;20051;-65
2023/04/24 06:24:10;;;;;;;6.72;3.60;;;;;;;18.54;84.59;98486.38;5140005;28;20070;-62
2023/04/24 06:26:36;;;;;;;6.60;3.72;;;;;;;19.68;78.25;98496.44;5139753;28;20097;-62
2023/04/24 06:29:02;;;;;;;5.03;3.30;;;;;;;20.98;73.48;98495.88;5140084;28;20043;-65
2023/04/24 06:31:28;;;;;;;5.13;3.30;;;;;;;20.27;71.63;98504.59;5139513;27;20420;-65
2023/04/24 06:33:54;;;;;;;5.25;3.20;;;;;;;21.58;68.56;98506.88;5139552;28;20058;-66
2023/04/24 06:36:20;;;;;;;8.48;3.40;;;;;;;21.56;66.10;98520.53;5139523;27;20051;-65
2023/04/24 06:38:46;;;;;;;4.93;2.95;;;;;;;20.51;67.53;98513.38;5139712;28;20046;-63
2023/04/24 06:41:12;;;;;;;5.03;2.70;;;;;;;20.22;67.93;98515.03;5139741;28;20286;-63
2023/04/24 06:43:38;;;;;;;6.95;3.70;;;;;;;21.05;68.71;98507.53;5139255;28;20051;-65
2023/04/24 06:46:04;;;;;;;8.07;3.35;;;;;;;21.31;65.64;98513.03;5139749;28;20082;-66
2023/04/24 06:48:31;;;;;;;14.32;3.47;;;;;;;22.52;63.10;98516.78;5139245;28;20332;-60
2023/04/24 06:50:57;;;;;;;6.95;2.85;;;;;;;21.53;64.44;98508.25;5139708;28;20157;-61
2023/04/24 06:53:23;;;;;;;3.83;3.20;;;;;;;21.21;66.52;98505.81;5139323;27;20083;-61
2023/04/24 06:55:49;;;;;;;12.60;3.50;;;;;;;19.69;69.96;98511.09;5139546;28;20047;-60
2023/04/24 06:58:15;;;;;;;13.90;3.67;;;;;;;19.46;68.75;98510.16;5139175;28;20047;-58
2023/04/24 07:00:41;;;;;;;7.60;3.13;;;;;;;20.75;69.12;98503.41;5139542;27;20046;-62
2023/04/24 07:03:07;;;;;;;8.50;3.47;;;;;;;21.57;65.56;98508.91;5139272;28;20384;-64
2023/04/24 07:05:35;;;;;;;9.60;4.15;;;;;;;21.61;63.98;98515.13;5138565;27;20079;-65
2023/04/24 07:08:01;;;;;;;14.38;3.75;;;;;;;21.99;61.84;98510.50;5138241;28;20165;-66
2023/04/24 07:10:28;;;;;;;8.38;4.32;;;;;;;23.09;59.36;98516.44;5139099;28;20062;-64
2023/04/24 07:12:54;;;;;;;11.27;3.35;;;;;;;23.94;58.63;98520.22;5139279;27;20195;-65
2023/04/24 07:15:20;;;;;;;10.30;2.80;;;;;;;21.42;59.18;98518.22;5139029;28;20412;-67
2023/04/24 07:17:46;;;;;;;4.35;2.60;;;;;;;22.29;58.29;98520.91;5139119;28;20047;-64
2023/04/24 07:20:14;;;;;;;9.73;3.88;;;;;;;21.26;60.39;98516.38;5138881;28;20133;-65
2023/04/24 07:22:40;;;;;;;4.35;3.60;;;;;;;22.86;59.13;98515.00;5139170;28;20131;-63
2023/04/24 07:25:08;;;;;;;7.22;3.45;;;;;;;24.17;56.40;98518.72;5138710;27;20051;-63
2023/04/24 07:27:35;;;;;;;7.75;3.78;;;;;;;22.18;58.70;98516.97;5139154;28;20055;-66
2023/04/24 07:30:01;;;;;;;6.30;4.40;;;;;;;22.98;58.57;98508.50;5138623;28;20130;-65
2023/04/24 07:32:27;;;;;;;5.95;3.40;;;;;;;24.86;54.50;98514.19;5138841;28;20051;-65
2023/04/24 07:34:53;;;;;;;8.77;3.38;;;;;;;24.10;56.05;98507.88;5138803;27;20057;-63
2023/04/24 07:37:20;;;;;;;7.57;3.50;;;;;;;23.64;56.39;98510.00;5138725;27;20055;-62
2023/04/24 07:39:46;;;;;;;6.10;3.78;;;;;;;24.46;54.84;98509.00;5138436;27;20421;-63
2023/04/24 07:42:12;;;;;;;6.53;3.58;;;;;;;25.26;54.18;98512.97;5138403;28;20138;-63
2023/04/24 07:44:38;;;;;;;10.27;3.22;;;;;;;25.35;52.82;98506.47;5138596;28;20047;-62
2023/04/24 07:47:04;;;;;;;10.90;3.17;;;;;;;24.00;53.78;98525.19;5138491;28;20047;-62
2023/04/24 07:49:30;;;;;;;8.27;3.47;;;;;;;24.37;53.22;98515.38;5138406;27;20051;-63
2023/04/24 07:51:56;;;;;;;5.55;3.22;;;;;;;22.49;56.73;98502.94;5138656;27;20055;-66
2023/04/24 07:54:22;;;;;;;7.88;3.22;;;;;;;22.96;55.90;98508.19;5138968;28;20051;-65
2023/04/24 07:56:49;;;;;;;4.32;3.20;;;;;;;22.48;56.50;98507.78;5138688;28;20047;-65
2023/04/24 07:59:15;;;;;;;3.13;2.70;;;;;;;23.45;55.23;98509.25;5138691;28;20404;-65
2023/04/24 08:01:41;;;;;;;4.78;2.50;;;;;;;23.67;54.22;98503.47;5138366;28;20138;-65
2023/04/24 08:04:07;;;;;;;4.75;2.85;;;;;;;22.83;53.85;98509.56;5138221;28;20092;-65
2023/04/24 08:06:33;;;;;;;14.30;2.47;;;;;;;23.00;53.63;98508.03;5138274;27;20057;-65
2023/04/24 08:09:00;;;;;;;7.45;2.65;;;;;;;23.36;53.50;98496.06;5138174;28;20137;-65
2023/04/24 08:11:26;;;;;;;6.93;2.40;;;;;;;22.70;53.67;98504.09;5138368;28;20383;-64
2023/04/24 08:13:54;;;;;;;4.60;2.40;;;;;;;22.40;53.41;98503.72;5138186;28;20138;-64
2023/04/24 08:16:20;;;;;;;8.27;2.40;;;;;;;23.08;51.93;98497.31;5138187;28;20091;-64
2023/04/24 08:18:46;;;;;;;4.93;1.88;;;;;;;23.84;51.21;98498.31;5137568;27;20129;-63
2023/04/24 08:21:16;;;;;;;5.25;2.17;;;;;;;23.63;51.46;98509.22;5138134;28;20047;-62
2023/04/24 08:23:42;;;;;;;13.85;2.55;;;;;;;24.26;50.75;98500.31;5137773;28;20083;-65
2023/04/24 08:26:08;;;;;;;6.63;1.92;;;;;;;22.66;51.46;98495.88;5138282;27;20085;-62
2023/04/24 08:28:34;;;;;;;4.45;2.25;;;;;;;22.27;50.76;98506.63;5137680;28;20043;-61
2023/04/24 08:31:01;;;;;;;1.60;1.48;;;;;;;23.08;50.60;98498.09;5137923;28;20047;-60
2023/04/24 08:33:27;;;;;;;2.65;2.20;;;;;;;22.60;49.94;98497.72;5137953;27;20074;-61
2023/04/24 08:35:53;;;;;;;3.67;2.28;;;;;;;23.91;50.27;98498.75;5137768;27;20043;-64
2023/04/24 08:38:19;;;;;;;4.15;2.10;;;;;;;23.33;48.55;98490.63;5137927;28;20062;-66
2023/04/24 08:40:48;;;;;;;8.95;2.22;;;;;;;23.40;48.63;98502.28;5137704;28;20043;-61
2023/04/24 08:43:14;;;;;;;2.92;1.73;;;;;;;22.75;49.32;98497.88;5137615;28;20051;-63
2023/04/24 08:45:40;;;;;;;3.33;2.30;;;;;;;22.94;49.47;98485.50;5137452;28;20146;-65
2023/04/24 08:48:07;;;;;;;3.35;2.10;;;;;;;23.32;47.58;98489.06;5137777;28;20396;-65
2023/04/24 08:50:34;;;;;;;3.83;2.20;;;;;;;23.77;46.59;98502.22;5137379;28;20058;-62
2023/04/24 08:53:01;;;;;;;2.42;2.00;;;;;;;23.56;46.89;98489.97;5137840;27;20111;-64
2023/04/24 08:55:30;;;;;;;10.18;2.38;;;;;;;23.82;46.49;98481.22;5137266;28;20055;-61
2023/04/24 08:57:57;;;;;;;7.47;2.25;;;;;;;23.17;47.05;98481.31;5137426;28;20089;-63
2023/04/24 09:00:23;;;;;;;5.35;2.20;;;;;;;23.58;46.99;98484.69;5137570;28;20047;-62
2023/04/24 09:02:50;;;;;;;8.40;2.22;;;;;;;23.88;47.22;98482.91;5137230;28;20062;-64
2023/04/24 09:05:18;;;;;;;5.38;1.88;;;;;;;25.03;45.50;98483.69;5137319;27;20138;-64
2023/04/24 09:07:46;;;;;;;2.88;2.10;;;;;;;24.33;45.49;98481.16;5137315;28;20054;-64
2023/04/24 09:10:12;;;;;;;5.70;2.40;;;;;;;26.18;44.31;98475.50;5137528;28;20051;-65
2023/04/24 09:12:38;;;;;;;3.70;2.40;;;;;;;26.11;43.40;98472.31;5137097;28;20138;-65
2023/04/24 09:15:07;;;;;;;4.88;2.22;;;;;;;23.63;45.54;98478.47;5137462;28;20108;-65
2023/04/24 09:17:34;;;;;;;3.67;2.17;;;;;;;23.73;46.41;98470.06;5137052;28;20373;-62
2023/04/24 09:19:59;;;;;;;4.43;2.00;;;;;;;23.61;46.42;98478.13;5137509;28;20168;-61
2023/04/24 09:22:29;;;;;;;2.70;2.20;;;;;;;23.29;46.58;98459.25;5136992;28;20055;-62
2023/04/24 09:25:02;;;;;;;5.85;2.20;;;;;;;23.84;46.66;98470.34;5137171;27;20130;-63
2023/04/24 09:27:28;;;;;;;3.70;2.28;;;;;;;23.22;45.17;98451.94;5137211;27;20059;-62
2023/04/24 09:29:55;;;;;;;2.22;2.00;;;;;;;24.00;45.26;98449.59;5138228;27;20202;-61
2023/04/24 09:32:22;;;;;;;3.00;2.15;;;;;;;25.09;44.55;98455.72;5140711;27;20404;-64
2023/04/24 09:34:48;;;;;;;8.30;2.33;;;;;;;25.43;44.46;98456.41;5140564;27;20142;-61
2023/04/24 09:37:29;;;;;;;3.35;2.13;;;;;;;23.53;44.97;98454.56;5140877;27;20073;-62
2023/04/24 09:40:08;;;;;;;2.22;1.80;;;;;;;24.81;45.03;98446.78;5140486;28;20047;-61
2023/04/24 09:42:34;;;;;;;3.08;2.08;;;;;;;24.63;43.42;98453.31;5140866;28;20061;-63
2023/04/24 09:45:00;;;;;;;7.63;2.28;;;;;;;23.64;44.56;98448.44;5140186;28;20051;-64
2023/04/24 09:47:26;;;;;;;2.58;2.38;;;;;;;24.10;44.23;98437.09;5140571;28;20051;-62
2023/04/24 09:49:58;;;;;;;3.67;2.28;;;;;;;23.43;45.01;98436.25;5140599;28;20143;-62
2023/04/24 09:52:25;;;;;;;3.50;2.33;;;;;;;23.85;45.33;98439.06;5140472;27;20051;-63
2023/04/24 09:54:54;;;;;;;3.20;2.10;;;;;;;24.87;45.16;98428.81;5140614;27;20047;-66
2023/04/24 09:57:19;;;;;;;8.13;2.35;;;;;;;25.32;44.51;98426.09;5140215;28;20047;-66
2023/04/24 09:59:46;;;;;;;5.25;2.22;;;;;;;23.51;45.82;98436.69;5140332;28;20400;-65
2023/04/24 10:02:17;;;;;;;4.10;2.20;;;;;;;22.51;46.63;98431.44;5140106;28;20047;-64
2023/04/24 10:04:55;;;;;;;8.65;2.42;;;;;;;21.85;47.84;98433.72;5140288;27;20058;-60
2023/04/24 10:07:21;;;;;;;3.78;2.20;;;;;;;22.62;47.68;98436.56;5139995;28;20043;-64
2023/04/24 10:09:47;;;;;;;2.28;2.05;;;;;;;20.62;48.36;98430.25;5140391;27;20396;-65
2023/04/24 10:12:15;;;;;;;4.03;2.10;;;;;;;20.90;48.77;98425.72;5140114;27;20078;-61
2023/04/24 10:14:41;;;;;;;7.32;2.10;;;;;;;21.29;48.54;98429.06;5139868;28;20051;-64
2023/04/24 10:17:08;;;;;;;5.03;1.98;;;;;;;20.62;49.71;98417.09;5140172;28;20195;-61
2023/04/24 10:19:35;;;;;;;6.13;1.90;;;;;;;20.41;50.09;98415.03;5139947;28;20412;-60
2023/04/24 10:22:02;;;;;;;2.90;1.88;;;;;;;20.45;49.88;98416.47;5140306;27;20062;-61
2023/04/24 10:24:29;;;;;;;4.45;2.05;;;;;;;20.65;49.24;98421.78;5141082;28;20472;-61
2023/04/24 10:26:56;;;;;;;3.60;2.20;;;;;;;20.84;48.98;98413.59;5140310;28;20329;-60
2023/04/24 10:29:24;;;;;;;2.67;1.85;;;;;;;20.96;48.62;98409.97;5139705;28;20062;-64
2023/04/24 10:31:50;;;;;;;2.00;1.73;;;;;;;20.94;48.76;98426.34;5140083;27;20074;-61
2023/04/24 10:34:18;;;;;;;6.05;1.70;;;;;;;21.02;48.79;98422.06;5139636;28;20424;-61
2023/04/24 10:36:50;;;;;;;2.55;1.65;;;;;;;20.79;48.18;98416.94;5139370;27;20118;-65
2023/04/24 10:39:17;;;;;;;1.70;1.58;;;;;;;20.74;47.91;98409.94;5139496;28;20134;-64
2023/04/24 10:41:43;;;;;;;1.40;1.35;;;;;;;20.54;47.66;98404.69;5139423;27;20062;-61
2023/04/24 10:44:11;;;;;;;3.05;1.65;;;;;;;20.28;47.53;98409.50;5139650;27;20055;-60
2023/04/24 10:46:38;;;;;;;2.50;2.10;;;;;;;19.92;47.94;98416.22;5139562;27;20047;-61
2023/04/24 10:49:06;;;;;;;1.60;1.50;;;;;;;21.27;47.93;98412.03;5139726;27;20078;-64
2023/04/24 10:51:48;;;;;;;5.75;1.48;;;;;;;20.72;47.77;98415.19;5139235;28;20421;-64
2023/04/24 10:54:25;;;;;;;3.60;1.65;;;;;;;19.99;48.47;98429.13;5137068;28;20047;-64
2023/04/24 10:56:51;;;;;;;2.20;1.30;;;;;;;19.61;48.60;98415.97;5139185;28;20401;-64
2023/04/24 10:59:25;;;;;;;3.60;2.35;;;;;;;19.89;48.78;98421.91;5139601;27;20072;-64
2023/04/24 11:01:54;;;;;;;5.45;2.42;;;;;;;19.87;48.73;98410.47;5139153;28;20474;-61
2023/04/24 11:04:29;;;;;;;1.60;1.50;;;;;;;19.63;49.30;98407.22;5139230;28;20054;-64
2023/04/24 11:06:55;;;;;;;6.60;2.10;;;;;;;19.46;48.61;98415.66;5139432;27;20062;-61
2023/04/24 11:09:21;;;;;;;3.05;1.77;;;;;;;19.79;48.77;98417.47;5139148;28;20348;-61
2023/04/24 11:11:47;;;;;;;2.53;1.95;;;;;;;19.52;49.70;98418.63;5139425;28;20130;-60
2023/04/24 11:14:15;;;;;;;3.22;1.60;;;;;;;19.27;49.08;98414.63;5139105;28;20412;-62
2023/04/24 11:16:45;;;;;;;3.58;1.60;;;;;;;18.95;49.48;98412.75;5139348;28;20141;-64
2023/04/24 11:19:21;;;;;;;3.00;2.00;;;;;;;19.00;49.92;98411.44;5138892;28;20047;-64
2023/04/24 11:21:49;;;;;;;2.80;1.58;;;;;;;18.75;50.23;98407.34;5139031;27;20051;-61
2023/04/24 11:24:30;;;;;;;5.78;1.75;;;;;;;18.88;50.49;98410.16;5138910;28;20051;-62
2023/04/24 11:26:58;;;;;;;4.75;2.40;;;;;;;18.87;50.36;98400.28;5138933;28;20047;-63